Latest Coastal Weather Observations for Cape Jaffa

IDS60701

Issued at 1:55 am CST Friday 3 October 2014 (issued every 10 minutes, with the page automatically refreshed every 10 minutes)

About coastal observations | Map of coastal stations | Coastal observations for SA | Marine services | Other Formats
Station Details ID: 026095 Name: THE LIMESTONE Lat: -36.97 Lon: 139.72 Height: 17.0 m
Data from the previous 72 hours. | See also: Recent months at Cape Jaffa
Date/Time
CST
Temp

°C
Wind Pressure Rain
since 9am
mm
Weather Cloud Vis
km
Sea
Height
m
Swell
Dir
 
Speed
knots
Gust
knots
hPa Trend Height
m
Period
s
Dir
03/01:30am 11.6 ESE 3 5 1024.1 - 0.0 - - - - - - -
03/01:00am 11.6 E 3 4 1024.5 - 0.0 - - - - - - -
03/12:30am 11.8 E 3 5 1024.8 - 0.0 - - - - - - -
03/12:00am 11.8 E 3 4 1025.0 - 0.0 - - - - - - -
 
Date/Time
CST
Temp

°C
Wind Pressure Rain
since 9am
mm
Weather Cloud Vis
km
Sea
Height
m
Swell
Dir
 
Speed
knots
Gust
knots
hPa Trend Height
m
Period
s
Dir
02/11:30pm 11.9 SSE 2 4 1025.3 - 0.0 - - - - - - -
02/11:00pm 11.8 SSE 4 6 1025.4 - 0.0 - - - - - - -
02/10:30pm 12.2 SE 3 4 1025.6 - 0.0 - - - - - - -
02/10:00pm 12.1 S 4 8 1025.9 - 0.0 - - - - - - -
02/09:30pm 12.3 SSW 5 9 1026.0 - 0.0 - - - - - - -
02/09:00pm 12.3 S 2 2 1026.1 - 0.0 - - - - - - -
02/08:30pm 12.4 SSE 4 6 1025.9 - 0.0 - - - - - - -
02/08:00pm 12.4 SSE 3 4 1026.0 - 0.0 - - - - - - -
02/07:30pm 12.7 SSW 5 7 1025.8 - 0.0 - - - - - - -
02/07:00pm 12.8 S 7 9 1025.7 - 0.0 - - - - - - -
02/06:30pm 12.8 S 6 9 1025.5 - 0.0 - - - - - - -
02/06:00pm 12.9 S 6 8 1025.4 - 0.0 - - - - - - -
02/05:30pm 13.4 SW 5 7 1025.5 - 0.0 - - - - - - -
02/05:00pm 13.6 SW 7 10 1025.4 - 0.0 - - - - - - -
02/04:30pm 13.9 SW 7 10 1025.4 - 0.0 - - - - - - -
02/04:00pm 14.2 SW 10 13 1025.3 - 0.0 - - - - - - -
02/03:30pm 14.5 SSW 10 13 1025.6 - 0.0 - - - - - - -
02/03:00pm 14.6 SW 9 11 1025.7 - 0.0 - - - - - - -
02/02:30pm 14.3 SSW 9 11 1025.8 - 0.0 - - - - - - -
02/02:00pm 14.8 W 10 11 1026.1 - 0.0 - - - - - - -
02/01:30pm 15.4 SW 8 11 1026.2 - 0.0 - - - - - - -
02/01:00pm 15.4 SW 12 15 1026.6 - 0.0 - - - - - - -
02/12:30pm 15.1 SW 12 15 1026.8 - 0.0 - - - - - - -
02/12:00pm 14.5 SW 12 15 1027.1 - 0.0 - - - - - - -
02/11:30am 14.7 WSW 11 14 1027.3 - 0.0 - - - - - - -
02/11:00am 15.9 WSW 9 13 1027.5 - 0.0 - - - - - - -
02/10:30am 14.7 WSW 12 15 1027.5 - 0.0 - - - - - - -
02/10:00am 14.4 WSW 11 14 1027.6 - 0.0 - - - - - - -
02/09:30am 14.7 WSW 10 14 1027.6 - 0.0 - - - - - - -
02/09:00am 14.3 SW 10 12 1027.6 - 0.0 - - - - - - -
02/08:30am 13.9 WSW 11 13 1027.5 - 0.0 - - - - - - -
02/08:00am 13.8 WSW 8 13 1027.4 - 0.0 - - - - - - -
02/07:30am 13.2 WSW 10 14 1027.2 - 0.0 - - - - - - -
02/07:00am 12.4 SW 9 15 1027.0 - 0.0 - - - - - - -
02/06:30am 12.4 SW 11 15 1026.8 - 0.0 - - - - - - -
02/06:00am 12.6 WSW 8 11 1026.5 - 0.0 - - - - - - -
02/05:30am 12.6 WSW 10 15 1026.2 - 0.0 - - - - - - -
02/05:00am 12.6 SW 10 14 1026.1 - 0.0 - - - - - - -
02/04:30am 12.5 WSW 8 11 1026.0 - 0.0 - - - - - - -
02/04:00am 12.4 WSW 8 13 1026.1 - 0.0 - - - - - - -
02/03:30am 12.5 SW 8 11 1026.1 - 0.0 - - - - - - -
02/03:00am 12.4 WSW 8 13 1026.1 - 0.0 - - - - - - -
02/02:30am 12.5 SW 10 15 1026.1 - 0.0 - - - - - - -
02/02:00am 12.4 WSW 11 16 1026.4 - 0.0 - - - - - - -
02/01:30am 12.3 WSW 10 14 1026.8 - 0.0 - - - - - - -
02/01:00am 12.4 WSW 10 14 1027.1 - 0.0 - - - - - - -
02/12:30am 12.3 WSW 9 12 1027.3 - 0.0 - - - - - - -
02/12:00am 12.3 WSW 11 16 1027.3 - 0.0 - - - - - - -
 
Date/Time
CST
Temp

°C
Wind Pressure Rain
since 9am
mm
Weather Cloud Vis
km
Sea
Height
m
Swell
Dir
 
Speed
knots
Gust
knots
hPa Trend Height
m
Period
s
Dir
01/11:30pm 12.2 WSW 10 16 1027.5 - 0.0 - - - - - - -
01/11:00pm 12.4 WSW 10 15 1027.6 - 0.0 - - - - - - -
01/10:30pm 12.5 SW 10 15 1027.6 - 0.0 - - - - - - -
01/10:00pm 12.4 WSW 10 16 1027.9 - 0.0 - - - - - - -
01/09:30pm 12.4 WSW 10 14 1027.9 - 0.0 - - - - - - -
01/09:00pm 12.4 WSW 7 10 1027.9 - 0.0 - - - - - - -
01/08:30pm 12.4 WSW 8 13 1028.0 - 0.0 - - - - - - -
01/08:00pm 12.4 WSW 9 11 1028.1 - 0.0 - - - - - - -
01/07:30pm 12.5 SW 9 12 1027.9 - 0.0 - - - - - - -
01/07:00pm 11.6 SW 7 10 1027.6 - 0.0 - - - - - - -
01/06:30pm 12.1 WSW 9 11 1027.4 - 0.0 - - - - - - -
01/06:00pm 12.7 SW 7 10 1027.3 - 0.0 - - - - - - -
01/05:30pm 12.9 SSW 7 9 1027.2 - 0.0 - - - - - - -
01/05:00pm 13.1 SW 9 11 1027.1 - 0.0 - - - - - - -
01/04:30pm 13.6 SW 9 12 1027.0 - 0.0 - - - - - - -
01/04:00pm 14.1 SW 9 13 1026.9 - 0.0 - - - - - - -
01/03:30pm 14.1 WSW 11 14 1026.7 - 0.0 - - - - - - -
01/03:00pm 14.0 SW 9 12 1026.9 - 0.0 - - - - - - -
01/02:30pm 15.1 SW 10 14 1027.1 - 0.0 - - - - - - -
01/02:00pm 15.4 SW 10 13 1027.2 - 0.0 - - - - - - -
01/01:30pm 15.5 SW 10 13 1027.2 - 0.0 - - - - - - -
01/01:00pm 14.2 WSW 8 11 1027.5 - 0.0 - - - - - - -
01/12:30pm 14.8 WSW 8 11 1027.5 - 0.0 - - - - - - -
01/12:00pm 15.2 SW 8 13 1027.6 - 0.0 - - - - - - -
01/11:30am 14.3 SW 10 14 1027.7 - 0.0 - - - - - - -
01/11:00am 15.1 SSW 10 16 1027.7 - 0.0 - - - - - - -
01/10:30am 14.6 SW 11 14 1027.7 - 0.0 - - - - - - -
01/10:00am 14.1 SW 13 16 1027.7 - 0.0 - - - - - - -
01/09:30am 14.1 SSW 14 18 1027.6 - 0.0 - - - - - - -
01/09:00am 13.9 SSW 14 17 1027.0 - 1.2 - - - - - - -
01/08:30am 13.1 SW 12 19 1026.6 - 1.2 - - - - - - -
01/08:00am 13.2 SW 13 18 1025.9 - 1.2 - - - - - - -
01/07:30am 12.3 SW 12 16 1025.4 - 1.2 - - - - - - -
01/07:00am 11.4 SSW 14 17 1025.1 - 1.2 - - - - - - -
01/06:30am 11.6 SW 13 18 1024.8 - 1.2 - - - - - - -
01/06:00am 11.1 SW 13 18 1024.2 - 1.2 - - - - - - -
01/05:30am 11.3 SW 16 21 1023.7 - 1.2 - - - - - - -
01/05:00am 11.1 SW 14 19 1023.4 - 1.2 - - - - - - -
01/04:30am 10.9 SSW 16 22 1022.9 - 1.2 - - - - - - -
01/04:00am 10.7 SW 16 21 1022.6 - 1.2 - - - - - - -
01/03:30am 11.2 SW 19 26 1022.2 - 1.2 - - - - - - -
01/03:00am 11.1 SW 16 21 1022.0 - 1.2 - - - - - - -
01/02:30am 11.2 SW 16 23 1021.8 - 1.2 - - - - - - -
01/02:00am 11.0 SW 16 20 1021.5 - 1.2 - - - - - - -
01/01:30am 11.0 SW 16 22 1021.4 - 1.2 - - - - - - -
01/01:00am 10.5 SW 14 20 1021.3 - 1.2 - - - - - - -
01/12:30am 11.6 SW 18 23 1021.1 - 1.2 - - - - - - -
01/12:00am 11.5 SW 15 21 1021.0 - 1.2 - - - - - - -
 
Date/Time
CST
Temp

°C
Wind Pressure Rain
since 9am
mm
Weather Cloud Vis
km
Sea
Height
m
Swell
Dir
 
Speed
knots
Gust
knots
hPa Trend Height
m
Period
s
Dir
30/11:30pm 11.6 SW 17 24 1020.6 - 1.2 - - - - - - -
30/11:00pm 11.3 SW 19 26 1020.4 - 1.2 - - - - - - -
30/10:30pm 11.2 SW 17 25 1020.0 - 1.2 - - - - - - -
30/10:00pm 11.1 WSW 16 23 1019.7 - 1.2 - - - - - - -
30/09:30pm 10.1 WSW 15 20 1019.6 - 1.2 - - - - - - -
30/09:00pm 10.9 WSW 17 22 1019.1 - 1.2 Recent precip. - - - - - -
30/08:30pm 10.1 WSW 16 21 1018.8 - 1.2 - - - - - - -
30/08:00pm 11.1 WSW 20 26 1018.2 - 0.8 - - - - - - -
30/07:30pm 10.9 SW 20 26 1017.6 - 0.8 - - - - - - -
30/07:00pm 11.9 WSW 21 28 1016.6 - 0.8 - - - - - - -
30/06:30pm 11.6 WSW 20 28 1016.3 - 0.8 - - - - - - -
30/06:07pm 11.7 WSW 19 29 1015.8 - 0.8 - - - - - - -
30/06:00pm 11.3 WSW 21 28 1016.0 - 0.8 - - - - - - -
30/05:30pm 11.3 WSW 23 31 1015.7 - 0.8 - - - - - - -
30/05:00pm 12.1 WSW 20 28 1015.0 - 0.8 - - - - - - -
30/04:30pm 11.3 SW 23 30 1014.9 - 0.8 - - - - - - -
30/04:11pm 13.4 W 27 40 1013.9 - 0.8 - - - - - - -
30/04:00pm 14.5 W 23 31 1013.8 - 0.8 - - - - - - -
30/03:30pm 14.9 WSW 23 29 1013.4 - 0.8 - - - - - - -
30/03:00pm 14.9 WSW 26 32 1013.0 - 0.8 - - - - - - -
30/02:30pm 14.9 W 26 33 1012.3 - 0.8 - - - - - - -
30/02:00pm 14.9 WSW 28 34 1011.8 - 0.8 - - - - - - -
30/01:30pm 15.4 WSW 29 39 1011.5 - 0.8 - - - - - - -
30/01:20pm 14.9 WSW 28 38 1011.0 - 0.8 - - - - - - -
30/01:00pm 15.1 W 28 36 1010.8 - 0.8 - - - - - - -
30/12:30pm 13.8 W 24 33 1010.7 - 0.8 - - - - - - -
30/12:20pm 13.9 W 25 37 1010.5 - 0.8 - - - - - - -
30/12:00pm 13.2 W 24 34 1010.2 - 0.8 - - - - - - -
30/11:46am 13.8 W 29 42 1009.7 - 0.8 - - - - - - -
30/11:30am 13.7 WSW 26 34 1009.6 - 0.8 - - - - - - -
30/11:18am 12.4 WSW 24 32 1009.4 - 0.8 - - - - - - -
30/11:13am 14.2 W 25 37 1009.3 - 0.8 - - - - - - -
30/11:00am 14.6 W 24 31 1008.9 - 0.8 - - - - - - -
30/10:40am 12.8 W 28 38 1009.0 - 0.8 - - - - - - -
30/10:30am 12.7 W 29 38 1008.9 - 0.8 - - - - - - -
30/10:22am 12.2 W 30 35 1008.8 - 0.6 - - - - - - -
30/10:20am 14.4 WNW 21 32 1008.9 - 0.2 - - - - - - -
30/10:00am 17.1 NW 20 29 1008.3 - 0.0 - - - - - - -
30/09:30am 17.0 NW 21 31 1008.6 - 0.0 - - - - - - -
30/09:28am 17.3 NW 20 30 1008.6 - 0.0 - - - - - - -
30/09:00am 16.8 NW 20 28 1008.3 - 0.0 - - - - - - -
30/08:30am 15.2 NW 19 29 1008.5 - 0.0 - - - - - - -
30/08:27am 15.7 NW 18 29 1008.6 - 0.0 - - - - - - -
30/08:00am 15.7 NNW 20 27 1008.4 - 0.0 - - - - - - -
30/07:30am 15.1 NNW 20 27 1008.5 - 0.0 - - - - - - -
30/07:00am 15.2 NNW 19 25 1008.5 - 0.0 - - - - - - -
30/06:30am 14.9 NNW 18 24 1008.2 - 0.0 - - - - - - -
30/06:00am 14.4 NNW 17 21 1008.1 - 0.0 - - - - - - -
30/05:30am 14.1 N 15 20 1007.8 - 0.0 - - - - - - -
30/05:00am 14.2 NNW 16 20 1007.9 - 0.0 - - - - - - -
30/04:30am 14.4 NNW 16 20 1008.0 - 0.0 - - - - - - -
30/04:00am 14.5 NNW 15 20 1008.5 - 0.0 - - - - - - -
30/03:30am 14.5 NNW 15 19 1008.6 - 0.0 - - - - - - -
30/03:00am 14.4 NNW 14 19 1009.1 - 0.0 - - - - - - -
30/02:30am 14.4 NW 13 18 1009.4 - 0.0 - - - - - - -
30/02:00am 14.3 NW 13 19 1009.8 - 0.0 - - - - - - -

Other Formats:

Comma delimited format used in spreadsheet applications
http://www.bom.gov.au/fwo/IDS60701/IDS60701.94813.axf

JavaScript Object Notation format (JSON) in row-major order
http://www.bom.gov.au/fwo/IDS60701/IDS60701.94813.json